sensor_id;sensor_type;location;lat;lon;timestamp;P1;durP1;ratioP1;P2;durP2;ratioP2
11000;SDS011;5553;48.506;8.870;2022-11-14T00:01:19;10.33;;;7.10;;
11000;SDS011;5553;48.506;8.870;2022-11-14T00:03:48;13.17;;;7.63;;
11000;SDS011;5553;48.506;8.870;2022-11-14T00:06:20;13.70;;;8.10;;
11000;SDS011;5553;48.506;8.870;2022-11-14T00:08:48;14.13;;;7.60;;
11000;SDS011;5553;48.506;8.870;2022-11-14T00:11:16;11.13;;;7.53;;
11000;SDS011;5553;48.506;8.870;2022-11-14T00:13:45;12.47;;;7.33;;
11000;SDS011;5553;48.506;8.870;2022-11-14T00:16:13;12.30;;;7.90;;
11000;SDS011;5553;48.506;8.870;2022-11-14T00:18:41;13.37;;;8.07;;
11000;SDS011;5553;48.506;8.870;2022-11-14T00:21:10;12.53;;;8.13;;
11000;SDS011;5553;48.506;8.870;2022-11-14T00:23:41;12.53;;;7.70;;
11000;SDS011;5553;48.506;8.870;2022-11-14T00:26:09;15.57;;;7.60;;
11000;SDS011;5553;48.506;8.870;2022-11-14T00:28:37;12.77;;;7.07;;
11000;SDS011;5553;48.506;8.870;2022-11-14T00:31:06;11.80;;;7.80;;
11000;SDS011;5553;48.506;8.870;2022-11-14T00:33:36;12.07;;;8.60;;
11000;SDS011;5553;48.506;8.870;2022-11-14T00:36:04;12.70;;;7.90;;
11000;SDS011;5553;48.506;8.870;2022-11-14T00:38:33;11.73;;;7.73;;
11000;SDS011;5553;48.506;8.870;2022-11-14T00:41:04;13.30;;;8.73;;
11000;SDS011;5553;48.506;8.870;2022-11-14T00:43:32;13.50;;;7.10;;
11000;SDS011;5553;48.506;8.870;2022-11-14T00:46:00;15.23;;;9.07;;
11000;SDS011;5553;48.506;8.870;2022-11-14T00:48:29;15.70;;;9.23;;
11000;SDS011;5553;48.506;8.870;2022-11-14T00:50:57;13.63;;;7.60;;
11000;SDS011;5553;48.506;8.870;2022-11-14T00:53:26;11.00;;;7.90;;
11000;SDS011;5553;48.506;8.870;2022-11-14T00:55:54;12.10;;;8.03;;
11000;SDS011;5553;48.506;8.870;2022-11-14T00:58:25;13.20;;;8.50;;
11000;SDS011;5553;48.506;8.870;2022-11-14T01:00:53;11.50;;;7.90;;
11000;SDS011;5553;48.506;8.870;2022-11-14T01:03:22;11.60;;;6.80;;
11000;SDS011;5553;48.506;8.870;2022-11-14T01:05:50;16.70;;;6.73;;
11000;SDS011;5553;48.506;8.870;2022-11-14T01:08:19;12.97;;;6.43;;
11000;SDS011;5553;48.506;8.870;2022-11-14T01:10:48;9.37;;;6.20;;
11000;SDS011;5553;48.506;8.870;2022-11-14T01:13:17;13.20;;;7.50;;
11000;SDS011;5553;48.506;8.870;2022-11-14T01:15:49;12.47;;;7.50;;
11000;SDS011;5553;48.506;8.870;2022-11-14T01:18:19;12.57;;;8.00;;
11000;SDS011;5553;48.506;8.870;2022-11-14T01:20:48;16.30;;;8.30;;
11000;SDS011;5553;48.506;8.870;2022-11-14T01:23:17;12.03;;;7.90;;
11000;SDS011;5553;48.506;8.870;2022-11-14T01:25:45;11.73;;;7.10;;
11000;SDS011;5553;48.506;8.870;2022-11-14T01:28:14;11.03;;;6.90;;
11000;SDS011;5553;48.506;8.870;2022-11-14T01:30:44;11.17;;;7.10;;
11000;SDS011;5553;48.506;8.870;2022-11-14T01:33:15;14.03;;;7.67;;
11000;SDS011;5553;48.506;8.870;2022-11-14T01:35:44;13.03;;;7.70;;
11000;SDS011;5553;48.506;8.870;2022-11-14T01:38:13;11.53;;;7.83;;
11000;SDS011;5553;48.506;8.870;2022-11-14T01:40:42;8.73;;;6.73;;
11000;SDS011;5553;48.506;8.870;2022-11-14T01:43:22;12.60;;;7.83;;
11000;SDS011;5553;48.506;8.870;2022-11-14T01:45:52;11.63;;;6.80;;
11000;SDS011;5553;48.506;8.870;2022-11-14T01:48:26;12.77;;;6.77;;
11000;SDS011;5553;48.506;8.870;2022-11-14T01:51:00;12.90;;;7.67;;
11000;SDS011;5553;48.506;8.870;2022-11-14T01:53:32;10.57;;;7.10;;
11000;SDS011;5553;48.506;8.870;2022-11-14T01:56:02;9.73;;;7.17;;
11000;SDS011;5553;48.506;8.870;2022-11-14T01:58:32;9.87;;;7.80;;
11000;SDS011;5553;48.506;8.870;2022-11-14T02:01:04;11.53;;;7.13;;
11000;SDS011;5553;48.506;8.870;2022-11-14T02:03:36;12.80;;;8.13;;
11000;SDS011;5553;48.506;8.870;2022-11-14T02:06:07;12.33;;;7.80;;
11000;SDS011;5553;48.506;8.870;2022-11-14T02:08:39;8.80;;;6.43;;
11000;SDS011;5553;48.506;8.870;2022-11-14T02:11:09;12.10;;;7.50;;
11000;SDS011;5553;48.506;8.870;2022-11-14T02:13:38;12.10;;;7.87;;
11000;SDS011;5553;48.506;8.870;2022-11-14T02:16:07;12.50;;;8.57;;
11000;SDS011;5553;48.506;8.870;2022-11-14T02:18:38;10.43;;;7.20;;
11000;SDS011;5553;48.506;8.870;2022-11-14T02:21:08;10.00;;;7.37;;
11000;SDS011;5553;48.506;8.870;2022-11-14T02:23:37;12.53;;;7.80;;
11000;SDS011;5553;48.506;8.870;2022-11-14T02:26:05;10.57;;;7.23;;
11000;SDS011;5553;48.506;8.870;2022-11-14T02:28:33;12.43;;;8.00;;
11000;SDS011;5553;48.506;8.870;2022-11-14T02:31:02;11.13;;;6.70;;
11000;SDS011;5553;48.506;8.870;2022-11-14T02:33:31;12.27;;;7.50;;
11000;SDS011;5553;48.506;8.870;2022-11-14T02:35:59;10.83;;;7.10;;
11000;SDS011;5553;48.506;8.870;2022-11-14T02:38:30;14.30;;;7.57;;
11000;SDS011;5553;48.506;8.870;2022-11-14T02:40:58;13.03;;;7.87;;
11000;SDS011;5553;48.506;8.870;2022-11-14T02:43:27;11.13;;;7.00;;
11000;SDS011;5553;48.506;8.870;2022-11-14T02:45:56;17.57;;;9.80;;
11000;SDS011;5553;48.506;8.870;2022-11-14T02:48:24;14.60;;;8.80;;
11000;SDS011;5553;48.506;8.870;2022-11-14T02:50:52;12.83;;;7.70;;
11000;SDS011;5553;48.506;8.870;2022-11-14T02:53:20;15.10;;;8.13;;
11000;SDS011;5553;48.506;8.870;2022-11-14T05:54:46;13.03;;;7.27;;
11000;SDS011;5553;48.506;8.870;2022-11-14T05:57:14;13.10;;;7.47;;
11000;SDS011;5553;48.506;8.870;2022-11-14T05:59:43;14.60;;;8.37;;
11000;SDS011;5553;48.506;8.870;2022-11-14T06:02:11;18.70;;;7.90;;
11000;SDS011;5553;48.506;8.870;2022-11-14T06:04:39;30.70;;;7.40;;
11000;SDS011;5553;48.506;8.870;2022-11-14T06:07:08;16.90;;;7.23;;
11000;SDS011;5553;48.506;8.870;2022-11-14T06:09:36;11.13;;;7.30;;
11000;SDS011;5553;48.506;8.870;2022-11-14T06:12:07;17.37;;;7.47;;
11000;SDS011;5553;48.506;8.870;2022-11-14T06:14:35;10.33;;;6.53;;
11000;SDS011;5553;48.506;8.870;2022-11-14T06:17:04;15.60;;;6.77;;
11000;SDS011;5553;48.506;8.870;2022-11-14T06:19:32;7.70;;;6.07;;
11000;SDS011;5553;48.506;8.870;2022-11-14T06:22:01;14.13;;;7.60;;
11000;SDS011;5553;48.506;8.870;2022-11-14T06:24:29;11.83;;;7.47;;
11000;SDS011;5553;48.506;8.870;2022-11-14T06:26:57;9.70;;;6.30;;
11000;SDS011;5553;48.506;8.870;2022-11-14T06:29:28;9.53;;;7.00;;
11000;SDS011;5553;48.506;8.870;2022-11-14T06:31:57;10.83;;;7.80;;
11000;SDS011;5553;48.506;8.870;2022-11-14T06:34:25;12.77;;;7.67;;
11000;SDS011;5553;48.506;8.870;2022-11-14T06:36:53;11.23;;;7.00;;
11000;SDS011;5553;48.506;8.870;2022-11-14T06:39:22;12.47;;;9.00;;
11000;SDS011;5553;48.506;8.870;2022-11-14T06:41:50;11.80;;;7.37;;
11000;SDS011;5553;48.506;8.870;2022-11-14T06:44:18;12.30;;;8.30;;
11000;SDS011;5553;48.506;8.870;2022-11-14T06:46:49;18.80;;;11.40;;
11000;SDS011;5553;48.506;8.870;2022-11-14T06:49:17;13.13;;;8.33;;
11000;SDS011;5553;48.506;8.870;2022-11-14T06:51:46;16.80;;;9.10;;
11000;SDS011;5553;48.506;8.870;2022-11-14T06:54:15;15.30;;;8.23;;
11000;SDS011;5553;48.506;8.870;2022-11-14T06:56:43;96.70;;;47.17;;
11000;SDS011;5553;48.506;8.870;2022-11-14T06:59:11;64.83;;;34.20;;
11000;SDS011;5553;48.506;8.870;2022-11-14T07:01:40;57.00;;;30.63;;
11000;SDS011;5553;48.506;8.870;2022-11-14T07:04:11;54.63;;;26.67;;
11000;SDS011;5553;48.506;8.870;2022-11-14T07:06:39;34.93;;;16.57;;
11000;SDS011;5553;48.506;8.870;2022-11-14T07:09:08;23.13;;;13.23;;
11000;SDS011;5553;48.506;8.870;2022-11-14T07:11:37;21.63;;;13.03;;
11000;SDS011;5553;48.506;8.870;2022-11-14T07:14:06;13.93;;;8.50;;
11000;SDS011;5553;48.506;8.870;2022-11-14T07:16:35;60.30;;;25.93;;
11000;SDS011;5553;48.506;8.870;2022-11-14T07:19:05;25.03;;;13.20;;
11000;SDS011;5553;48.506;8.870;2022-11-14T07:21:39;37.47;;;21.73;;
11000;SDS011;5553;48.506;8.870;2022-11-14T07:24:07;38.73;;;18.70;;
11000;SDS011;5553;48.506;8.870;2022-11-14T07:26:36;23.53;;;14.30;;
11000;SDS011;5553;48.506;8.870;2022-11-14T07:29:04;17.20;;;10.30;;
11000;SDS011;5553;48.506;8.870;2022-11-14T07:31:32;18.33;;;11.23;;
11000;SDS011;5553;48.506;8.870;2022-11-14T07:34:01;21.63;;;12.13;;
11000;SDS011;5553;48.506;8.870;2022-11-14T07:36:30;18.80;;;11.30;;
11000;SDS011;5553;48.506;8.870;2022-11-14T07:39:01;18.90;;;12.13;;
11000;SDS011;5553;48.506;8.870;2022-11-14T07:41:29;21.00;;;13.10;;
11000;SDS011;5553;48.506;8.870;2022-11-14T07:43:58;19.83;;;13.20;;
11000;SDS011;5553;48.506;8.870;2022-11-14T07:46:26;23.87;;;13.63;;
11000;SDS011;5553;48.506;8.870;2022-11-14T07:48:54;21.93;;;12.23;;
11000;SDS011;5553;48.506;8.870;2022-11-14T07:51:23;13.90;;;10.10;;
11000;SDS011;5553;48.506;8.870;2022-11-14T07:53:51;16.87;;;10.43;;
11000;SDS011;5553;48.506;8.870;2022-11-14T07:56:22;14.70;;;9.50;;
11000;SDS011;5553;48.506;8.870;2022-11-14T07:58:52;12.93;;;8.20;;
11000;SDS011;5553;48.506;8.870;2022-11-14T08:01:21;14.90;;;9.00;;
11000;SDS011;5553;48.506;8.870;2022-11-14T08:03:49;10.23;;;6.87;;
11000;SDS011;5553;48.506;8.870;2022-11-14T08:06:18;15.03;;;9.57;;
11000;SDS011;5553;48.506;8.870;2022-11-14T08:08:46;13.57;;;8.97;;
11000;SDS011;5553;48.506;8.870;2022-11-14T08:11:14;15.60;;;9.40;;
11000;SDS011;5553;48.506;8.870;2022-11-14T08:14:06;11.43;;;8.10;;
11000;SDS011;5553;48.506;8.870;2022-11-14T08:16:34;9.87;;;6.73;;
11000;SDS011;5553;48.506;8.870;2022-11-14T08:19:02;9.93;;;6.97;;
11000;SDS011;5553;48.506;8.870;2022-11-14T08:21:31;10.00;;;6.97;;
11000;SDS011;5553;48.506;8.870;2022-11-14T08:23:59;9.90;;;7.00;;
11000;SDS011;5553;48.506;8.870;2022-11-14T08:26:28;8.80;;;6.87;;
11000;SDS011;5553;48.506;8.870;2022-11-14T08:28:56;15.50;;;7.87;;
11000;SDS011;5553;48.506;8.870;2022-11-14T08:31:27;9.00;;;7.43;;
11000;SDS011;5553;48.506;8.870;2022-11-14T08:33:55;8.63;;;6.83;;
11000;SDS011;5553;48.506;8.870;2022-11-14T08:36:24;7.93;;;6.30;;
11000;SDS011;5553;48.506;8.870;2022-11-14T08:38:52;10.80;;;7.70;;
11000;SDS011;5553;48.506;8.870;2022-11-14T08:41:20;11.43;;;8.17;;
11000;SDS011;5553;48.506;8.870;2022-11-14T08:43:49;10.40;;;7.90;;
11000;SDS011;5553;48.506;8.870;2022-11-14T08:46:17;8.30;;;6.40;;
11000;SDS011;5553;48.506;8.870;2022-11-14T08:48:48;12.37;;;8.23;;
11000;SDS011;5553;48.506;8.870;2022-11-14T08:51:16;17.07;;;11.00;;
11000;SDS011;5553;48.506;8.870;2022-11-14T08:53:45;12.73;;;9.13;;
11000;SDS011;5553;48.506;8.870;2022-11-14T08:56:13;11.00;;;7.77;;
11000;SDS011;5553;48.506;8.870;2022-11-14T08:58:41;11.40;;;8.20;;
11000;SDS011;5553;48.506;8.870;2022-11-14T09:01:10;12.60;;;8.20;;
11000;SDS011;5553;48.506;8.870;2022-11-14T09:03:38;10.67;;;7.97;;
11000;SDS011;5553;48.506;8.870;2022-11-14T09:06:09;12.57;;;9.00;;
11000;SDS011;5553;48.506;8.870;2022-11-14T09:08:37;12.30;;;9.00;;
11000;SDS011;5553;48.506;8.870;2022-11-14T09:11:06;11.57;;;7.93;;
11000;SDS011;5553;48.506;8.870;2022-11-14T09:13:34;12.17;;;8.50;;
11000;SDS011;5553;48.506;8.870;2022-11-14T09:16:02;12.30;;;7.67;;
11000;SDS011;5553;48.506;8.870;2022-11-14T09:18:31;10.80;;;7.90;;
11000;SDS011;5553;48.506;8.870;2022-11-14T09:21:00;9.03;;;6.57;;
11000;SDS011;5553;48.506;8.870;2022-11-14T09:23:31;11.50;;;8.33;;
11000;SDS011;5553;48.506;8.870;2022-11-14T09:26:02;11.50;;;8.47;;
11000;SDS011;5553;48.506;8.870;2022-11-14T09:28:31;18.27;;;11.87;;
11000;SDS011;5553;48.506;8.870;2022-11-14T09:31:00;17.47;;;10.80;;
11000;SDS011;5553;48.506;8.870;2022-11-14T09:33:28;14.20;;;10.33;;
11000;SDS011;5553;48.506;8.870;2022-11-14T09:35:57;18.67;;;13.20;;
11000;SDS011;5553;48.506;8.870;2022-11-14T09:38:25;15.93;;;14.00;;
11000;SDS011;5553;48.506;8.870;2022-11-14T09:41:00;15.87;;;13.30;;
11000;SDS011;5553;48.506;8.870;2022-11-14T09:43:43;16.93;;;12.87;;
11000;SDS011;5553;48.506;8.870;2022-11-14T09:46:26;16.70;;;13.40;;
11000;SDS011;5553;48.506;8.870;2022-11-14T09:49:00;12.60;;;8.60;;
11000;SDS011;5553;48.506;8.870;2022-11-14T09:51:29;15.77;;;10.00;;
11000;SDS011;5553;48.506;8.870;2022-11-14T09:54:02;21.30;;;16.13;;
11000;SDS011;5553;48.506;8.870;2022-11-14T09:56:40;11.53;;;7.60;;
11000;SDS011;5553;48.506;8.870;2022-11-14T09:59:09;8.23;;;6.23;;
11000;SDS011;5553;48.506;8.870;2022-11-14T10:01:40;13.40;;;8.33;;
11000;SDS011;5553;48.506;8.870;2022-11-14T10:09:16;5.33;;;3.80;;
11000;SDS011;5553;48.506;8.870;2022-11-14T10:12:04;7.40;;;4.67;;
11000;SDS011;5553;48.506;8.870;2022-11-14T10:14:40;5.47;;;3.80;;
11000;SDS011;5553;48.506;8.870;2022-11-14T10:17:30;6.50;;;3.20;;
11000;SDS011;5553;48.506;8.870;2022-11-14T10:20:11;4.30;;;3.87;;
11000;SDS011;5553;48.506;8.870;2022-11-14T10:25:47;3.83;;;2.50;;
11000;SDS011;5553;48.506;8.870;2022-11-14T10:31:27;2.50;;;2.03;;
11000;SDS011;5553;48.506;8.870;2022-11-14T10:34:10;3.60;;;3.00;;
11000;SDS011;5553;48.506;8.870;2022-11-14T10:36:54;3.73;;;3.23;;
11000;SDS011;5553;48.506;8.870;2022-11-14T10:39:30;9.23;;;2.57;;
11000;SDS011;5553;48.506;8.870;2022-11-14T10:42:08;1.40;;;1.00;;
11000;SDS011;5553;48.506;8.870;2022-11-14T10:44:45;1.00;;;1.00;;
11000;SDS011;5553;48.506;8.870;2022-11-14T10:47:19;1.50;;;1.40;;
11000;SDS011;5553;48.506;8.870;2022-11-14T10:49:49;1.33;;;1.23;;
11000;SDS011;5553;48.506;8.870;2022-11-14T10:52:22;1.50;;;1.30;;
11000;SDS011;5553;48.506;8.870;2022-11-14T10:55:05;1.30;;;1.20;;
11000;SDS011;5553;48.506;8.870;2022-11-14T10:57:39;1.37;;;1.03;;
11000;SDS011;5553;48.506;8.870;2022-11-14T11:00:13;1.10;;;0.90;;
11000;SDS011;5553;48.506;8.870;2022-11-14T11:02:47;1.20;;;1.10;;
11000;SDS011;5553;48.506;8.870;2022-11-14T11:05:19;1.10;;;0.87;;
11000;SDS011;5553;48.506;8.870;2022-11-14T11:07:49;1.30;;;0.80;;
11000;SDS011;5553;48.506;8.870;2022-11-14T11:10:30;1.40;;;1.23;;
11000;SDS011;5553;48.506;8.870;2022-11-14T11:13:14;0.57;;;0.57;;
11000;SDS011;5553;48.506;8.870;2022-11-14T11:15:59;1.43;;;0.80;;
11000;SDS011;5553;48.506;8.870;2022-11-14T11:18:30;2.40;;;0.97;;
11000;SDS011;5553;48.506;8.870;2022-11-14T11:21:00;1.30;;;0.93;;
11000;SDS011;5553;48.506;8.870;2022-11-14T11:23:33;1.43;;;0.90;;
11000;SDS011;5553;48.506;8.870;2022-11-14T11:26:03;1.90;;;1.30;;
11000;SDS011;5553;48.506;8.870;2022-11-14T11:28:35;1.50;;;1.40;;
11000;SDS011;5553;48.506;8.870;2022-11-14T11:31:07;2.43;;;1.20;;
11000;SDS011;5553;48.506;8.870;2022-11-14T11:33:37;3.47;;;1.37;;
11000;SDS011;5553;48.506;8.870;2022-11-14T11:36:09;1.60;;;1.33;;
11000;SDS011;5553;48.506;8.870;2022-11-14T11:38:42;1.40;;;1.20;;
11000;SDS011;5553;48.506;8.870;2022-11-14T11:41:14;2.07;;;1.10;;
11000;SDS011;5553;48.506;8.870;2022-11-14T11:43:53;1.50;;;1.27;;
11000;SDS011;5553;48.506;8.870;2022-11-14T11:46:28;2.17;;;1.53;;
11000;SDS011;5553;48.506;8.870;2022-11-14T11:49:06;3.03;;;2.40;;
11000;SDS011;5553;48.506;8.870;2022-11-14T11:51:40;1.73;;;1.20;;
11000;SDS011;5553;48.506;8.870;2022-11-14T11:54:13;2.20;;;1.33;;
11000;SDS011;5553;48.506;8.870;2022-11-14T11:56:46;1.97;;;1.20;;
11000;SDS011;5553;48.506;8.870;2022-11-14T11:59:20;2.00;;;1.37;;
11000;SDS011;5553;48.506;8.870;2022-11-14T12:02:15;2.80;;;1.33;;
11000;SDS011;5553;48.506;8.870;2022-11-14T12:04:48;2.10;;;1.90;;
11000;SDS011;5553;48.506;8.870;2022-11-14T12:07:19;2.00;;;1.67;;
11000;SDS011;5553;48.506;8.870;2022-11-14T12:09:50;1.40;;;1.30;;
11000;SDS011;5553;48.506;8.870;2022-11-14T12:12:22;1.50;;;1.20;;
11000;SDS011;5553;48.506;8.870;2022-11-14T12:15:04;1.60;;;1.50;;
11000;SDS011;5553;48.506;8.870;2022-11-14T12:21:03;2.17;;;1.53;;
11000;SDS011;5553;48.506;8.870;2022-11-14T12:26:43;2.23;;;1.40;;
11000;SDS011;5553;48.506;8.870;2022-11-14T12:29:26;1.70;;;1.37;;
11000;SDS011;5553;48.506;8.870;2022-11-14T12:32:12;3.03;;;1.30;;
11000;SDS011;5553;48.506;8.870;2022-11-14T12:34:46;2.03;;;1.30;;
11000;SDS011;5553;48.506;8.870;2022-11-14T12:37:19;1.90;;;1.50;;
11000;SDS011;5553;48.506;8.870;2022-11-14T12:39:54;1.93;;;1.40;;
11000;SDS011;5553;48.506;8.870;2022-11-14T12:42:24;1.60;;;1.47;;
11000;SDS011;5553;48.506;8.870;2022-11-14T12:44:53;2.20;;;1.67;;
11000;SDS011;5553;48.506;8.870;2022-11-14T12:47:34;2.33;;;1.53;;
11000;SDS011;5553;48.506;8.870;2022-11-14T12:50:28;2.07;;;1.43;;
11000;SDS011;5553;48.506;8.870;2022-11-14T13:10:21;1.97;;;1.60;;
11000;SDS011;5553;48.506;8.870;2022-11-14T13:13:25;1.93;;;1.73;;
11000;SDS011;5553;48.506;8.870;2022-11-14T13:16:19;2.70;;;1.50;;
11000;SDS011;5553;48.506;8.870;2022-11-14T13:22:17;1.93;;;1.83;;
11000;SDS011;5553;48.506;8.870;2022-11-14T13:25:20;2.20;;;2.00;;
11000;SDS011;5553;48.506;8.870;2022-11-14T13:27:49;4.60;;;2.47;;
11000;SDS011;5553;48.506;8.870;2022-11-14T13:30:19;1.83;;;1.63;;
11000;SDS011;5553;48.506;8.870;2022-11-14T13:36:14;3.00;;;1.80;;
11000;SDS011;5553;48.506;8.870;2022-11-14T13:39:09;1.63;;;1.53;;
11000;SDS011;5553;48.506;8.870;2022-11-14T13:41:52;2.50;;;1.83;;
11000;SDS011;5553;48.506;8.870;2022-11-14T13:44:42;2.47;;;1.80;;
11000;SDS011;5553;48.506;8.870;2022-11-14T13:47:35;4.93;;;2.07;;
11000;SDS011;5553;48.506;8.870;2022-11-14T13:50:23;2.10;;;1.40;;
11000;SDS011;5553;48.506;8.870;2022-11-14T13:52:55;3.40;;;1.90;;
11000;SDS011;5553;48.506;8.870;2022-11-14T13:55:26;3.20;;;2.00;;
11000;SDS011;5553;48.506;8.870;2022-11-14T13:58:02;1.93;;;1.43;;
11000;SDS011;5553;48.506;8.870;2022-11-14T14:00:46;2.80;;;2.10;;
11000;SDS011;5553;48.506;8.870;2022-11-14T14:03:35;3.97;;;2.27;;
11000;SDS011;5553;48.506;8.870;2022-11-14T14:06:24;4.67;;;2.57;;
11000;SDS011;5553;48.506;8.870;2022-11-14T14:15:02;2.90;;;1.93;;
11000;SDS011;5553;48.506;8.870;2022-11-14T14:17:42;2.73;;;2.07;;
11000;SDS011;5553;48.506;8.870;2022-11-14T14:20:19;3.50;;;2.30;;
11000;SDS011;5553;48.506;8.870;2022-11-14T14:23:00;2.60;;;2.13;;
11000;SDS011;5553;48.506;8.870;2022-11-14T14:25:44;2.60;;;2.00;;
11000;SDS011;5553;48.506;8.870;2022-11-14T14:28:21;2.90;;;2.07;;
11000;SDS011;5553;48.506;8.870;2022-11-14T14:31:00;3.60;;;2.50;;
11000;SDS011;5553;48.506;8.870;2022-11-14T14:33:37;2.83;;;2.47;;
11000;SDS011;5553;48.506;8.870;2022-11-14T14:36:15;3.20;;;2.50;;
11000;SDS011;5553;48.506;8.870;2022-11-14T14:38:47;3.20;;;2.23;;
11000;SDS011;5553;48.506;8.870;2022-11-14T14:41:17;3.53;;;2.30;;
11000;SDS011;5553;48.506;8.870;2022-11-14T14:43:50;6.33;;;2.43;;
11000;SDS011;5553;48.506;8.870;2022-11-14T14:46:30;3.10;;;2.53;;
11000;SDS011;5553;48.506;8.870;2022-11-14T14:49:00;4.33;;;2.40;;
11000;SDS011;5553;48.506;8.870;2022-11-14T14:51:32;5.87;;;2.80;;
11000;SDS011;5553;48.506;8.870;2022-11-14T14:54:04;6.13;;;2.90;;
11000;SDS011;5553;48.506;8.870;2022-11-14T14:56:34;5.30;;;4.00;;
11000;SDS011;5553;48.506;8.870;2022-11-14T14:59:14;4.40;;;2.63;;
11000;SDS011;5553;48.506;8.870;2022-11-14T15:01:43;4.57;;;2.53;;
11000;SDS011;5553;48.506;8.870;2022-11-14T15:04:12;4.67;;;3.03;;
11000;SDS011;5553;48.506;8.870;2022-11-14T15:06:43;3.30;;;2.00;;
11000;SDS011;5553;48.506;8.870;2022-11-14T15:09:16;4.60;;;2.53;;
11000;SDS011;5553;48.506;8.870;2022-11-14T15:11:48;4.30;;;2.60;;
11000;SDS011;5553;48.506;8.870;2022-11-14T15:14:18;4.90;;;2.57;;
11000;SDS011;5553;48.506;8.870;2022-11-14T15:16:49;4.73;;;2.03;;
11000;SDS011;5553;48.506;8.870;2022-11-14T15:19:21;5.60;;;2.63;;
11000;SDS011;5553;48.506;8.870;2022-11-14T15:22:01;3.90;;;3.23;;
11000;SDS011;5553;48.506;8.870;2022-11-14T15:24:33;6.10;;;3.20;;
11000;SDS011;5553;48.506;8.870;2022-11-14T15:27:02;3.70;;;2.80;;
11000;SDS011;5553;48.506;8.870;2022-11-14T15:29:32;2.87;;;2.40;;
11000;SDS011;5553;48.506;8.870;2022-11-14T15:32:01;4.77;;;2.90;;
11000;SDS011;5553;48.506;8.870;2022-11-14T15:34:31;4.13;;;3.20;;
11000;SDS011;5553;48.506;8.870;2022-11-14T15:37:16;3.67;;;2.47;;
11000;SDS011;5553;48.506;8.870;2022-11-14T15:39:50;6.97;;;3.27;;
11000;SDS011;5553;48.506;8.870;2022-11-14T15:42:25;3.63;;;2.70;;
11000;SDS011;5553;48.506;8.870;2022-11-14T15:44:55;3.70;;;2.80;;
11000;SDS011;5553;48.506;8.870;2022-11-14T15:47:24;3.57;;;2.60;;
11000;SDS011;5553;48.506;8.870;2022-11-14T15:49:58;4.43;;;2.50;;
11000;SDS011;5553;48.506;8.870;2022-11-14T15:52:29;4.03;;;2.67;;
11000;SDS011;5553;48.506;8.870;2022-11-14T15:55:07;3.30;;;2.80;;
11000;SDS011;5553;48.506;8.870;2022-11-14T15:57:39;2.93;;;2.60;;
11000;SDS011;5553;48.506;8.870;2022-11-14T16:00:10;4.20;;;2.70;;
11000;SDS011;5553;48.506;8.870;2022-11-14T16:02:40;3.53;;;2.77;;
11000;SDS011;5553;48.506;8.870;2022-11-14T16:05:12;7.10;;;2.87;;
11000;SDS011;5553;48.506;8.870;2022-11-14T16:07:41;3.87;;;2.57;;
11000;SDS011;5553;48.506;8.870;2022-11-14T16:10:15;5.53;;;3.60;;
11000;SDS011;5553;48.506;8.870;2022-11-14T16:12:44;8.47;;;3.80;;
11000;SDS011;5553;48.506;8.870;2022-11-14T16:15:13;3.63;;;2.63;;
11000;SDS011;5553;48.506;8.870;2022-11-14T16:17:43;4.70;;;3.27;;
11000;SDS011;5553;48.506;8.870;2022-11-14T16:20:13;7.50;;;5.00;;
11000;SDS011;5553;48.506;8.870;2022-11-14T16:22:43;4.67;;;3.07;;
11000;SDS011;5553;48.506;8.870;2022-11-14T16:25:17;5.03;;;3.53;;
11000;SDS011;5553;48.506;8.870;2022-11-14T16:27:47;5.37;;;3.20;;
11000;SDS011;5553;48.506;8.870;2022-11-14T16:30:16;3.37;;;2.83;;
11000;SDS011;5553;48.506;8.870;2022-11-14T16:32:47;6.40;;;3.17;;
11000;SDS011;5553;48.506;8.870;2022-11-14T16:35:20;5.60;;;3.20;;
11000;SDS011;5553;48.506;8.870;2022-11-14T16:37:50;3.50;;;3.10;;
11000;SDS011;5553;48.506;8.870;2022-11-14T16:40:21;6.00;;;3.57;;
11000;SDS011;5553;48.506;8.870;2022-11-14T16:42:52;5.57;;;3.20;;
11000;SDS011;5553;48.506;8.870;2022-11-14T16:45:21;7.00;;;3.43;;
11000;SDS011;5553;48.506;8.870;2022-11-14T16:47:50;6.00;;;3.47;;
11000;SDS011;5553;48.506;8.870;2022-11-14T16:50:19;7.80;;;3.80;;
11000;SDS011;5553;48.506;8.870;2022-11-14T16:52:47;3.77;;;3.23;;
11000;SDS011;5553;48.506;8.870;2022-11-14T16:55:16;7.07;;;4.07;;
11000;SDS011;5553;48.506;8.870;2022-11-14T16:57:47;7.27;;;3.90;;
11000;SDS011;5553;48.506;8.870;2022-11-14T17:00:16;5.60;;;4.00;;
11000;SDS011;5553;48.506;8.870;2022-11-14T17:02:44;6.73;;;3.87;;
11000;SDS011;5553;48.506;8.870;2022-11-14T17:05:13;7.17;;;4.00;;
11000;SDS011;5553;48.506;8.870;2022-11-14T17:07:41;5.90;;;4.23;;
11000;SDS011;5553;48.506;8.870;2022-11-14T17:10:10;6.00;;;4.37;;
11000;SDS011;5553;48.506;8.870;2022-11-14T17:12:39;5.40;;;4.03;;
11000;SDS011;5553;48.506;8.870;2022-11-14T17:15:10;3.43;;;3.13;;
11000;SDS011;5553;48.506;8.870;2022-11-14T17:17:38;7.80;;;4.27;;
11000;SDS011;5553;48.506;8.870;2022-11-14T17:20:10;4.27;;;3.30;;
11000;SDS011;5553;48.506;8.870;2022-11-14T17:22:38;4.83;;;3.57;;
11000;SDS011;5553;48.506;8.870;2022-11-14T17:25:07;6.40;;;4.37;;
11000;SDS011;5553;48.506;8.870;2022-11-14T17:27:35;5.63;;;4.43;;
11000;SDS011;5553;48.506;8.870;2022-11-14T17:30:04;5.90;;;3.70;;
11000;SDS011;5553;48.506;8.870;2022-11-14T17:32:38;4.87;;;3.90;;
11000;SDS011;5553;48.506;8.870;2022-11-14T17:35:07;6.30;;;3.73;;
11000;SDS011;5553;48.506;8.870;2022-11-14T17:37:36;6.73;;;4.30;;
11000;SDS011;5553;48.506;8.870;2022-11-14T17:40:04;7.60;;;3.93;;
11000;SDS011;5553;48.506;8.870;2022-11-14T17:42:34;2.97;;;2.53;;
11000;SDS011;5553;48.506;8.870;2022-11-14T17:45:02;3.43;;;3.03;;
11000;SDS011;5553;48.506;8.870;2022-11-14T17:47:31;3.83;;;3.40;;
11000;SDS011;5553;48.506;8.870;2022-11-14T17:50:02;5.90;;;3.90;;
11000;SDS011;5553;48.506;8.870;2022-11-14T17:52:30;4.07;;;3.10;;
11000;SDS011;5553;48.506;8.870;2022-11-14T17:54:59;5.50;;;3.20;;
11000;SDS011;5553;48.506;8.870;2022-11-14T17:57:27;4.30;;;3.20;;
11000;SDS011;5553;48.506;8.870;2022-11-14T17:59:56;5.40;;;3.10;;
11000;SDS011;5553;48.506;8.870;2022-11-14T18:02:25;4.63;;;3.30;;
11000;SDS011;5553;48.506;8.870;2022-11-14T18:04:53;5.60;;;3.30;;
11000;SDS011;5553;48.506;8.870;2022-11-14T18:07:24;5.10;;;4.17;;
11000;SDS011;5553;48.506;8.870;2022-11-14T18:12:26;5.03;;;3.20;;
11000;SDS011;5553;48.506;8.870;2022-11-14T18:19:57;4.77;;;3.83;;
11000;SDS011;5553;48.506;8.870;2022-11-14T18:22:29;8.13;;;3.80;;
11000;SDS011;5553;48.506;8.870;2022-11-14T18:24:58;8.53;;;3.63;;
11000;SDS011;5553;48.506;8.870;2022-11-14T18:27:26;5.17;;;3.47;;
11000;SDS011;5553;48.506;8.870;2022-11-14T18:29:55;5.43;;;3.57;;
11000;SDS011;5553;48.506;8.870;2022-11-14T18:32:23;5.27;;;3.20;;
11000;SDS011;5553;48.506;8.870;2022-11-14T18:34:51;4.60;;;3.30;;
11000;SDS011;5553;48.506;8.870;2022-11-14T18:37:20;4.40;;;2.97;;
11000;SDS011;5553;48.506;8.870;2022-11-14T18:39:51;3.10;;;2.50;;
11000;SDS011;5553;48.506;8.870;2022-11-14T18:42:20;4.87;;;3.07;;
11000;SDS011;5553;48.506;8.870;2022-11-14T18:44:48;3.80;;;2.90;;
11000;SDS011;5553;48.506;8.870;2022-11-14T18:47:17;7.43;;;2.97;;
11000;SDS011;5553;48.506;8.870;2022-11-14T18:49:45;3.00;;;2.57;;
11000;SDS011;5553;48.506;8.870;2022-11-14T18:52:14;6.30;;;3.17;;
11000;SDS011;5553;48.506;8.870;2022-11-14T18:54:43;3.93;;;3.00;;
11000;SDS011;5553;48.506;8.870;2022-11-14T18:57:14;4.63;;;2.80;;
11000;SDS011;5553;48.506;8.870;2022-11-14T18:59:42;3.20;;;2.73;;
11000;SDS011;5553;48.506;8.870;2022-11-14T19:02:11;4.40;;;2.80;;
11000;SDS011;5553;48.506;8.870;2022-11-14T19:04:39;3.30;;;2.83;;
11000;SDS011;5553;48.506;8.870;2022-11-14T19:07:07;3.33;;;2.57;;
11000;SDS011;5553;48.506;8.870;2022-11-14T19:09:36;4.53;;;3.00;;
11000;SDS011;5553;48.506;8.870;2022-11-14T19:12:05;4.20;;;3.03;;
11000;SDS011;5553;48.506;8.870;2022-11-14T19:14:49;4.47;;;2.87;;
11000;SDS011;5553;48.506;8.870;2022-11-14T19:17:18;5.90;;;3.33;;